createdAt,value
2019-03-28T00:00:27.597Z,4.50
2019-03-28T00:02:55.811Z,4.70
2019-03-28T00:05:24.074Z,5.47
2019-03-28T00:07:52.357Z,4.90
2019-03-28T00:10:21.501Z,5.90
2019-03-28T00:12:49.711Z,5.47
2019-03-28T00:15:17.898Z,5.27
2019-03-28T00:17:46.186Z,5.50
2019-03-28T00:20:16.394Z,5.80
2019-03-28T00:23:02.178Z,6.03
2019-03-28T00:25:30.437Z,5.23
2019-03-28T00:27:58.625Z,5.50
2019-03-28T00:30:26.919Z,4.90
2019-03-28T00:32:55.181Z,5.30
2019-03-28T00:35:23.458Z,5.43
2019-03-28T00:37:51.650Z,5.83
2019-03-28T00:40:19.938Z,5.63
2019-03-28T00:42:48.130Z,5.30
2019-03-28T00:45:16.477Z,5.10
2019-03-28T00:47:44.662Z,5.50
2019-03-28T00:50:13.178Z,5.27
2019-03-28T00:52:41.433Z,4.93
2019-03-28T00:55:09.690Z,5.03
2019-03-28T00:57:37.970Z,4.67
2019-03-28T01:00:06.499Z,4.60
2019-03-28T01:02:34.782Z,4.97
2019-03-28T01:05:04.209Z,5.27
2019-03-28T01:07:32.490Z,5.10
2019-03-28T01:10:00.750Z,5.17
2019-03-28T01:12:29.029Z,4.63
2019-03-28T01:14:57.695Z,4.80
2019-03-28T01:17:26.393Z,4.83
2019-03-28T01:19:54.657Z,4.83
2019-03-28T01:22:22.841Z,4.97
2019-03-28T01:24:51.053Z,4.97
2019-03-28T01:27:19.305Z,5.40
2019-03-28T01:29:47.585Z,5.43
2019-03-28T01:32:15.774Z,5.13
2019-03-28T01:34:44.057Z,5.40
2019-03-28T01:37:12.334Z,5.10
2019-03-28T01:39:40.550Z,5.00
2019-03-28T01:42:08.810Z,5.40
2019-03-28T01:44:37.094Z,5.63
2019-03-28T01:47:05.353Z,5.53
2019-03-28T01:49:33.541Z,5.03
2019-03-28T01:52:04.178Z,4.70
2019-03-28T01:54:31.654Z,4.87
2019-03-28T01:57:10.222Z,5.47
2019-03-28T01:59:29.858Z,5.17
2019-03-28T02:01:58.075Z,4.80
2019-03-28T02:04:27.157Z,4.73
2019-03-28T02:06:55.427Z,5.60
2019-03-28T02:09:23.682Z,4.50
2019-03-28T02:11:51.958Z,5.60
2019-03-28T02:14:20.141Z,5.40
2019-03-28T02:16:48.347Z,4.80
2019-03-28T02:19:16.610Z,4.83
2019-03-28T02:21:44.901Z,5.37
2019-03-28T02:24:13.162Z,5.27
2019-03-28T02:26:41.421Z,5.30
2019-03-28T02:29:09.641Z,5.30
2019-03-28T02:31:37.898Z,4.87
2019-03-28T02:34:06.186Z,5.97
2019-03-28T02:36:34.448Z,5.17
2019-03-28T02:39:02.744Z,5.20
2019-03-28T02:41:30.995Z,5.50
2019-03-28T02:43:59.282Z,5.27
2019-03-28T02:46:27.558Z,5.83
2019-03-28T02:48:55.843Z,5.10
2019-03-28T02:51:24.105Z,6.07
2019-03-28T02:53:52.373Z,5.00
2019-03-28T02:56:20.646Z,5.60
2019-03-28T02:58:48.838Z,6.47
2019-03-28T03:01:17.045Z,5.40
2019-03-28T03:03:45.230Z,6.17
2019-03-28T03:06:13.515Z,6.17
2019-03-28T03:08:41.779Z,6.37
2019-03-28T03:11:10.057Z,5.73
2019-03-28T03:13:38.238Z,6.90
2019-03-28T03:16:06.514Z,5.60
2019-03-28T03:18:34.701Z,6.57
2019-03-28T03:21:02.891Z,6.93
2019-03-28T03:23:31.182Z,5.67
2019-03-28T03:25:59.470Z,6.50
2019-03-28T03:28:27.741Z,7.33
2019-03-28T03:30:56.013Z,6.60
2019-03-28T03:33:24.295Z,5.43
2019-03-28T03:35:52.557Z,6.23
2019-03-28T03:38:21.662Z,6.87
2019-03-28T03:40:50.031Z,6.47
2019-03-28T03:43:18.322Z,7.47
2019-03-28T03:45:46.587Z,6.70
2019-03-28T03:48:14.903Z,7.30
2019-03-28T03:50:43.167Z,6.23
2019-03-28T03:53:11.443Z,6.77
2019-03-28T03:55:39.736Z,6.50
2019-03-28T03:58:16.224Z,6.47
2019-03-28T04:00:37.954Z,5.87
2019-03-28T04:03:06.199Z,6.00
2019-03-28T04:05:34.487Z,6.17
2019-03-28T04:08:02.772Z,6.57
2019-03-28T04:10:31.051Z,6.80
2019-03-28T04:12:59.313Z,6.63
2019-03-28T04:15:27.543Z,7.10
2019-03-28T04:17:55.802Z,6.33
2019-03-28T04:20:24.903Z,6.53
2019-03-28T04:22:53.483Z,6.40
2019-03-28T04:25:21.753Z,6.87
2019-03-28T04:27:50.034Z,6.90
2019-03-28T04:30:18.285Z,6.17
2019-03-28T04:32:46.848Z,6.77
2019-03-28T04:35:15.226Z,7.03
2019-03-28T04:37:43.437Z,7.20
2019-03-28T04:40:11.778Z,6.13
2019-03-28T04:42:40.090Z,6.20
2019-03-28T04:45:08.349Z,6.30
2019-03-28T04:47:36.660Z,5.80
2019-03-28T04:50:07.879Z,6.00
2019-03-28T04:52:36.133Z,7.00
2019-03-28T04:55:05.017Z,6.60
2019-03-28T04:57:33.288Z,7.80
2019-03-28T05:00:01.506Z,7.53
2019-03-28T05:02:29.774Z,8.10
2019-03-28T05:04:58.058Z,8.23
2019-03-28T05:07:26.317Z,7.77
2019-03-28T05:09:54.533Z,7.17
2019-03-28T05:12:22.789Z,7.40
2019-03-28T05:14:51.014Z,7.43
2019-03-28T05:17:19.282Z,6.70
2019-03-28T05:19:48.353Z,6.50
2019-03-28T05:22:16.641Z,7.10
2019-03-28T05:24:44.874Z,7.00
2019-03-28T05:27:13.065Z,6.30
2019-03-28T05:29:41.324Z,7.00
2019-03-28T05:32:09.610Z,7.90
2019-03-28T05:34:37.869Z,6.40
2019-03-28T05:37:06.088Z,7.93
2019-03-28T05:39:34.347Z,6.77
2019-03-28T05:42:02.557Z,8.07
2019-03-28T05:44:30.752Z,7.33
2019-03-28T05:46:59.039Z,6.80
2019-03-28T05:49:27.309Z,8.00
2019-03-28T05:51:55.521Z,6.47
2019-03-28T05:54:23.710Z,6.73
2019-03-28T05:56:51.893Z,6.27
2019-03-28T05:59:20.113Z,6.40
2019-03-28T06:01:48.378Z,6.87
2019-03-28T06:04:16.666Z,6.90
2019-03-28T06:06:44.854Z,6.70
2019-03-28T06:09:13.141Z,7.77
2019-03-28T06:11:41.396Z,7.67
2019-03-28T06:14:09.610Z,7.43
2019-03-28T06:16:37.879Z,8.17
2019-03-28T06:19:06.165Z,7.60
2019-03-28T06:21:34.353Z,7.43
2019-03-28T06:24:02.546Z,7.83
2019-03-28T06:26:30.833Z,8.60
2019-03-28T06:28:59.097Z,7.37
2019-03-28T06:31:27.310Z,8.17
2019-03-28T06:33:55.567Z,7.80
2019-03-28T06:36:26.604Z,8.40
2019-03-28T06:38:53.810Z,8.90
2019-03-28T06:41:22.098Z,12.80
2019-03-28T06:43:50.357Z,8.50
2019-03-28T06:46:18.641Z,8.00
2019-03-28T06:48:46.826Z,8.10
2019-03-28T06:51:15.058Z,8.67
2019-03-28T06:53:43.241Z,8.30
2019-03-28T06:56:11.434Z,7.43
2019-03-28T06:58:39.713Z,8.60
2019-03-28T07:01:07.974Z,7.93
2019-03-28T07:03:36.263Z,7.90
2019-03-28T07:06:04.521Z,8.67
2019-03-28T07:08:32.729Z,8.57
2019-03-28T07:11:00.989Z,9.47
2019-03-28T07:13:29.273Z,9.73
2019-03-28T07:15:57.463Z,9.30
2019-03-28T07:18:25.764Z,10.53
2019-03-28T07:20:54.037Z,10.77
2019-03-28T07:23:22.225Z,10.13
2019-03-28T07:25:50.446Z,10.00
2019-03-28T07:28:18.706Z,10.03
2019-03-28T07:30:46.917Z,10.17
2019-03-28T07:33:15.191Z,9.90
2019-03-28T07:35:43.469Z,10.50
2019-03-28T07:38:11.660Z,10.13
2019-03-28T07:40:40.029Z,10.23
2019-03-28T07:43:08.227Z,10.40
2019-03-28T07:45:37.370Z,10.27
2019-03-28T07:48:05.563Z,9.50
2019-03-28T07:50:33.860Z,9.43
2019-03-28T07:53:02.125Z,10.13
2019-03-28T07:55:30.930Z,10.90
2019-03-28T07:57:59.771Z,10.30
2019-03-28T08:00:28.101Z,10.70
2019-03-28T08:02:58.445Z,9.80
2019-03-28T08:05:26.230Z,10.23
2019-03-28T08:07:54.507Z,9.53
2019-03-28T08:10:22.697Z,9.70
2019-03-28T08:12:50.909Z,9.27
2019-03-28T08:15:19.249Z,9.40
2019-03-28T08:17:47.534Z,9.60
2019-03-28T08:20:15.890Z,9.70
2019-03-28T08:22:44.083Z,8.90
2019-03-28T08:25:13.702Z,9.90
2019-03-28T08:27:42.265Z,9.63
2019-03-28T08:30:18.316Z,9.90
2019-03-28T08:32:40.634Z,10.60
2019-03-28T08:35:08.991Z,8.50
2019-03-28T08:37:37.456Z,9.10
2019-03-28T08:40:09.329Z,9.30
2019-03-28T08:42:37.586Z,9.40
2019-03-28T08:45:07.087Z,8.47
2019-03-28T08:47:35.529Z,11.23
2019-03-28T08:50:04.900Z,9.13
2019-03-28T08:52:33.177Z,9.20
2019-03-28T08:55:01.361Z,9.73
2019-03-28T08:57:29.658Z,8.83
2019-03-28T08:59:57.850Z,7.93
2019-03-28T09:02:26.190Z,7.93
2019-03-28T09:04:54.442Z,8.10
2019-03-28T09:07:22.653Z,7.97
2019-03-28T09:09:50.847Z,7.23
2019-03-28T09:12:19.061Z,7.27
2019-03-28T09:14:50.451Z,7.17
2019-03-28T09:17:18.753Z,7.33
2019-03-28T09:19:46.993Z,8.90
2019-03-28T09:22:15.237Z,7.53
2019-03-28T09:24:43.518Z,8.70
2019-03-28T09:27:11.777Z,7.03
2019-03-28T09:29:39.991Z,7.10
2019-03-28T09:32:08.184Z,7.07
2019-03-28T09:34:36.470Z,7.10
2019-03-28T09:37:04.670Z,6.63
2019-03-28T09:39:32.880Z,6.87
2019-03-28T09:42:01.212Z,6.50
2019-03-28T09:44:29.520Z,6.53
2019-03-28T09:46:57.780Z,6.80
2019-03-28T09:49:26.046Z,6.10
2019-03-28T09:51:54.252Z,6.10
2019-03-28T09:54:22.437Z,7.13
2019-03-28T09:56:50.726Z,6.17
2019-03-28T09:59:18.919Z,5.40
2019-03-28T10:01:47.254Z,6.03
2019-03-28T10:04:15.462Z,5.43
2019-03-28T10:06:43.819Z,4.57
2019-03-28T10:09:12.082Z,4.00
2019-03-28T10:11:40.346Z,4.33
2019-03-28T10:14:08.561Z,4.03
2019-03-28T10:16:40.038Z,4.23
2019-03-28T10:19:06.766Z,3.57
2019-03-28T10:21:37.470Z,3.80
2019-03-28T10:24:04.894Z,4.90
2019-03-28T10:26:33.125Z,4.13
2019-03-28T10:29:01.399Z,3.80
2019-03-28T10:31:29.805Z,4.20
2019-03-28T10:33:58.086Z,3.90
2019-03-28T10:36:27.836Z,4.63
2019-03-28T10:38:56.333Z,4.20
2019-03-28T10:41:26.049Z,3.70
2019-03-28T10:43:54.443Z,4.57
2019-03-28T10:46:22.766Z,4.73
2019-03-28T10:48:54.262Z,4.40
2019-03-28T10:51:21.033Z,3.53
2019-03-28T10:53:49.343Z,3.73
2019-03-28T10:56:22.064Z,3.40
2019-03-28T10:58:47.609Z,3.80
2019-03-28T11:01:16.783Z,4.57
2019-03-28T11:03:45.881Z,5.80
2019-03-28T11:06:14.262Z,3.40
2019-03-28T11:08:42.739Z,3.87
2019-03-28T11:11:11.182Z,3.30
2019-03-28T11:13:39.502Z,2.77
2019-03-28T11:16:07.869Z,3.80
2019-03-28T11:18:36.193Z,3.73
2019-03-28T11:21:05.556Z,3.23
2019-03-28T11:23:33.989Z,3.67
2019-03-28T11:26:02.363Z,2.93
2019-03-28T11:28:30.702Z,3.20
2019-03-28T11:30:58.993Z,3.23
2019-03-28T11:33:27.295Z,3.50
2019-03-28T11:35:55.614Z,3.10
2019-03-28T11:38:23.913Z,3.70
2019-03-28T11:40:52.235Z,3.37
2019-03-28T11:43:20.594Z,3.20
2019-03-28T11:45:48.914Z,3.30
2019-03-28T11:48:17.219Z,2.90
2019-03-28T11:50:45.540Z,3.83
2019-03-28T11:53:13.919Z,3.50
2019-03-28T11:55:42.265Z,3.37
2019-03-28T11:58:11.511Z,2.80
2019-03-28T12:00:40.118Z,2.60
2019-03-28T12:03:08.413Z,3.00
2019-03-28T12:05:36.709Z,2.50
2019-03-28T12:08:05.024Z,3.10
2019-03-28T12:10:33.322Z,2.70
2019-03-28T12:13:01.650Z,2.60
2019-03-28T12:15:30.018Z,2.43
2019-03-28T12:17:58.332Z,2.00
2019-03-28T12:20:26.633Z,2.67
2019-03-28T12:22:56.151Z,2.37
2019-03-28T12:25:24.558Z,1.77
2019-03-28T12:27:52.876Z,2.43
2019-03-28T12:30:21.350Z,2.60
2019-03-28T12:32:50.180Z,1.80
2019-03-28T12:35:18.441Z,1.83
2019-03-28T12:37:46.793Z,2.00
2019-03-28T12:40:15.154Z,2.43
2019-03-28T12:42:43.529Z,1.97
2019-03-28T12:45:13.117Z,1.90
2019-03-28T12:47:42.937Z,2.17
2019-03-28T12:50:12.016Z,2.03
2019-03-28T12:52:40.314Z,2.53
2019-03-28T12:55:08.696Z,3.30
2019-03-28T12:57:36.998Z,3.40
2019-03-28T13:00:07.102Z,2.63
2019-03-28T13:02:35.353Z,2.43
2019-03-28T13:05:05.050Z,3.70
2019-03-28T13:07:33.345Z,3.53
2019-03-28T13:10:02.105Z,4.00
2019-03-28T13:12:30.556Z,3.37
2019-03-28T13:14:58.931Z,3.47
2019-03-28T13:17:27.206Z,3.87
2019-03-28T13:19:55.509Z,4.00
2019-03-28T13:22:23.849Z,3.43
2019-03-28T13:24:52.140Z,3.20
2019-03-28T13:27:20.473Z,3.43
2019-03-28T13:29:48.774Z,3.30
2019-03-28T13:32:19.057Z,3.50
2019-03-28T13:34:47.447Z,3.40
2019-03-28T13:37:15.770Z,2.80
2019-03-28T13:39:44.069Z,3.80
2019-03-28T13:42:12.659Z,3.50
2019-03-28T13:44:41.089Z,3.13
2019-03-28T13:47:09.409Z,3.60
2019-03-28T13:49:37.701Z,3.83
2019-03-28T13:52:06.194Z,3.57
2019-03-28T13:54:34.642Z,4.77
2019-03-28T13:57:02.988Z,4.90
2019-03-28T13:59:34.960Z,5.20
2019-03-28T14:02:01.241Z,5.17
2019-03-28T14:04:29.562Z,5.03
2019-03-28T14:06:57.865Z,4.93
2019-03-28T14:09:26.190Z,5.00
2019-03-28T14:11:54.743Z,4.47
2019-03-28T14:14:23.081Z,3.27
2019-03-28T14:16:53.161Z,4.17
2019-03-28T14:19:21.334Z,3.50
2019-03-28T14:21:49.629Z,3.27
2019-03-28T14:24:17.955Z,3.20
2019-03-28T14:26:46.257Z,3.07
2019-03-28T14:29:14.579Z,3.70
2019-03-28T14:31:42.887Z,3.27
2019-03-28T14:34:11.177Z,3.20
2019-03-28T14:36:39.500Z,3.27
2019-03-28T14:39:07.867Z,3.50
2019-03-28T14:41:36.193Z,3.50
2019-03-28T14:44:04.569Z,3.50
2019-03-28T14:46:32.898Z,3.63
2019-03-28T14:49:01.289Z,3.60
2019-03-28T14:51:29.617Z,3.57
2019-03-28T14:53:57.984Z,4.23
2019-03-28T14:56:26.648Z,3.20
2019-03-28T14:58:55.914Z,3.20
2019-03-28T15:01:26.719Z,3.93
2019-03-28T15:03:54.173Z,3.77
2019-03-28T15:06:22.562Z,3.33
2019-03-28T15:08:50.863Z,2.90
2019-03-28T15:11:19.161Z,3.30
2019-03-28T15:13:47.489Z,3.40
2019-03-28T15:16:15.789Z,3.30
2019-03-28T15:18:44.152Z,3.10
2019-03-28T15:21:12.437Z,3.00
2019-03-28T15:23:40.761Z,3.50
2019-03-28T15:26:09.120Z,3.50
2019-03-28T15:28:37.453Z,3.73
2019-03-28T15:31:05.753Z,3.23
2019-03-28T15:33:39.909Z,2.90
2019-03-28T15:36:04.021Z,4.63
2019-03-28T15:38:32.317Z,4.33
2019-03-28T15:41:00.642Z,4.40
2019-03-28T15:43:28.945Z,4.57
2019-03-28T15:45:57.269Z,4.67
2019-03-28T15:48:25.565Z,5.00
2019-03-28T15:50:53.967Z,4.50
2019-03-28T15:53:22.298Z,4.53
2019-03-28T15:55:50.555Z,5.00
2019-03-28T15:58:23.596Z,5.03
2019-03-28T16:00:48.825Z,5.10
2019-03-28T16:03:17.141Z,4.43
2019-03-28T16:05:57.484Z,4.40
2019-03-28T16:08:15.401Z,3.50
2019-03-28T16:10:43.706Z,3.93
2019-03-28T16:13:12.029Z,5.00
2019-03-28T16:15:40.409Z,4.43
2019-03-28T16:18:08.725Z,4.73
2019-03-28T16:20:37.029Z,4.77
2019-03-28T16:23:05.352Z,5.57
2019-03-28T16:25:33.646Z,5.40
2019-03-28T16:28:01.946Z,6.90
2019-03-28T16:30:34.242Z,7.00
2019-03-28T16:33:02.542Z,5.20
2019-03-28T16:35:30.861Z,5.70
2019-03-28T16:37:59.157Z,4.90
2019-03-28T16:40:27.476Z,5.40
2019-03-28T16:42:55.770Z,5.80
2019-03-28T16:45:24.093Z,5.50
2019-03-28T16:47:52.393Z,5.30
2019-03-28T16:50:20.819Z,5.50
2019-03-28T16:52:49.121Z,5.13
2019-03-28T16:55:26.304Z,5.73
2019-03-28T16:57:47.399Z,4.90
2019-03-28T17:00:16.173Z,4.87
2019-03-28T17:02:44.486Z,3.80
2019-03-28T17:05:12.950Z,3.63
2019-03-28T17:07:42.358Z,3.90
2019-03-28T17:10:12.185Z,3.40
2019-03-28T17:12:41.587Z,4.07
2019-03-28T17:15:10.078Z,3.13
2019-03-28T17:17:38.513Z,3.00
2019-03-28T17:20:06.857Z,3.50
2019-03-28T17:22:35.756Z,3.77
2019-03-28T17:25:04.649Z,3.23
2019-03-28T17:27:32.974Z,3.33
2019-03-28T17:30:01.278Z,3.17
2019-03-28T17:32:29.569Z,3.00
2019-03-28T17:34:57.894Z,2.90
2019-03-28T17:37:26.181Z,3.03
2019-03-28T17:39:54.645Z,3.17
2019-03-28T17:42:23.340Z,2.97
2019-03-28T17:44:52.262Z,2.97
2019-03-28T17:47:20.569Z,3.00
2019-03-28T17:49:48.897Z,3.57
2019-03-28T17:52:17.205Z,3.70
2019-03-28T17:54:45.521Z,3.73
2019-03-28T17:57:13.972Z,3.57
2019-03-28T17:59:45.210Z,3.60
2019-03-28T18:02:12.201Z,4.17
2019-03-28T18:04:47.865Z,4.40
2019-03-28T18:07:10.476Z,3.60
2019-03-28T18:09:38.786Z,3.07
2019-03-28T18:12:07.099Z,2.67
2019-03-28T18:14:35.397Z,3.00
2019-03-28T18:17:03.734Z,3.33
2019-03-28T18:19:32.037Z,3.10
2019-03-28T18:22:03.634Z,2.83
2019-03-28T18:24:30.573Z,3.53
2019-03-28T18:26:58.917Z,3.00
2019-03-28T18:29:27.711Z,2.60
2019-03-28T18:31:56.134Z,3.20
2019-03-28T18:34:24.481Z,2.30
2019-03-28T18:36:52.928Z,2.60
2019-03-28T18:39:21.198Z,3.40
2019-03-28T18:41:49.509Z,3.07
2019-03-28T18:44:17.825Z,2.50
2019-03-28T18:46:46.131Z,3.33
2019-03-28T18:49:14.721Z,2.80
2019-03-28T18:51:43.019Z,2.67
2019-03-28T18:54:11.631Z,3.37
2019-03-28T18:56:39.930Z,2.87
2019-03-28T18:59:08.222Z,3.13
2019-03-28T19:01:36.545Z,2.47
2019-03-28T19:04:04.843Z,2.67
2019-03-28T19:06:33.161Z,3.00
2019-03-28T19:09:01.474Z,2.70
2019-03-28T19:11:29.915Z,3.70
2019-03-28T19:13:58.198Z,2.90
2019-03-28T19:16:26.594Z,2.63
2019-03-28T19:18:54.901Z,2.80
2019-03-28T19:21:23.222Z,2.40
2019-03-28T19:23:51.526Z,2.40
2019-03-28T19:26:19.841Z,2.30
2019-03-28T19:28:48.158Z,2.43
2019-03-28T19:31:16.457Z,2.23
2019-03-28T19:33:44.765Z,2.07
2019-03-28T19:36:13.633Z,2.40
2019-03-28T19:38:42.185Z,2.30
2019-03-28T19:41:11.043Z,2.30
2019-03-28T19:43:39.433Z,2.70
2019-03-28T19:46:07.735Z,2.50
2019-03-28T19:48:36.058Z,2.37
2019-03-28T19:51:04.431Z,2.93
2019-03-28T19:53:35.177Z,3.17
2019-03-28T20:02:50.599Z,5.13
2019-03-28T20:05:18.924Z,3.73
2019-03-28T20:07:47.230Z,3.10
2019-03-28T20:10:16.992Z,2.83
2019-03-28T20:12:46.930Z,3.27
2019-03-28T20:15:16.018Z,2.40
2019-03-28T20:17:47.833Z,3.27
2019-03-28T20:20:16.253Z,2.93
2019-03-28T20:22:45.287Z,3.47
2019-03-28T20:25:14.119Z,4.17
2019-03-28T20:27:43.170Z,3.77
2019-03-28T20:30:11.718Z,3.57
2019-03-28T20:32:40.515Z,3.23
2019-03-28T20:35:10.765Z,3.70
2019-03-28T20:37:39.958Z,3.47
2019-03-28T20:40:09.251Z,3.90
2019-03-28T20:42:38.139Z,3.07
2019-03-28T20:45:08.185Z,3.17
2019-03-28T20:47:36.515Z,5.67
2019-03-28T20:50:06.182Z,4.20
2019-03-28T20:52:34.510Z,3.20
2019-03-28T20:55:02.883Z,3.87
2019-03-28T20:57:31.213Z,3.37
2019-03-28T20:59:59.510Z,3.67
2019-03-28T21:02:27.808Z,3.83
2019-03-28T21:04:56.129Z,4.03
2019-03-28T21:07:24.435Z,4.47
2019-03-28T21:09:52.821Z,3.87
2019-03-28T21:12:21.120Z,4.43
2019-03-28T21:14:49.453Z,4.37
2019-03-28T21:17:17.775Z,4.73
2019-03-28T21:19:46.084Z,4.17
2019-03-28T21:22:14.407Z,5.53
2019-03-28T21:24:42.694Z,4.47
2019-03-28T21:27:11.022Z,4.70
2019-03-28T21:29:48.670Z,4.50
2019-03-28T21:32:09.282Z,5.23
2019-03-28T21:34:37.549Z,5.87
2019-03-28T21:37:06.578Z,5.53
2019-03-28T21:39:35.098Z,5.60
2019-03-28T21:42:03.311Z,5.27
2019-03-28T21:44:31.569Z,5.43
2019-03-28T21:46:59.858Z,5.40
2019-03-28T21:49:28.124Z,5.33
2019-03-28T21:51:56.423Z,7.20
2019-03-28T21:54:24.987Z,6.60
2019-03-28T21:56:53.459Z,6.60
2019-03-28T21:59:22.297Z,5.63
2019-03-28T22:01:51.202Z,5.77
2019-03-28T22:04:19.418Z,6.07
2019-03-28T22:06:48.915Z,6.80
2019-03-28T22:09:17.266Z,7.10
2019-03-28T22:11:45.464Z,6.37
2019-03-28T22:14:13.831Z,6.60
2019-03-28T22:16:42.216Z,5.87
2019-03-28T22:19:10.472Z,7.13
2019-03-28T22:21:38.771Z,6.50
2019-03-28T22:24:07.030Z,6.57
2019-03-28T22:26:35.391Z,7.50
2019-03-28T22:29:03.726Z,7.90
2019-03-28T22:31:32.013Z,7.80
2019-03-28T22:34:00.884Z,6.80
2019-03-28T22:36:30.167Z,7.67
2019-03-28T22:38:58.450Z,7.37
2019-03-28T22:41:26.662Z,7.60
2019-03-28T22:43:54.868Z,7.20
2019-03-28T22:46:23.138Z,6.33
2019-03-28T22:48:51.419Z,7.20
2019-03-28T22:51:19.682Z,6.13
2019-03-28T22:53:47.965Z,6.53
2019-03-28T22:56:16.241Z,6.40
2019-03-28T22:58:44.543Z,7.10
2019-03-28T23:01:13.102Z,6.73
2019-03-28T23:03:41.562Z,7.00
2019-03-28T23:06:09.905Z,7.60
2019-03-28T23:08:38.186Z,7.37
2019-03-28T23:11:06.455Z,6.97
2019-03-28T23:13:34.816Z,6.80
2019-03-28T23:16:03.265Z,6.20
2019-03-28T23:18:31.578Z,6.40
2019-03-28T23:20:59.856Z,5.83
2019-03-28T23:23:28.106Z,5.67
2019-03-28T23:25:56.462Z,5.87
2019-03-28T23:28:24.722Z,5.30
2019-03-28T23:30:52.935Z,5.03
2019-03-28T23:33:21.211Z,5.23
2019-03-28T23:35:49.492Z,5.20
2019-03-28T23:38:17.759Z,5.37
2019-03-28T23:40:46.038Z,5.30
2019-03-28T23:43:14.297Z,5.93
2019-03-28T23:45:42.509Z,6.00
2019-03-28T23:48:10.815Z,5.73
2019-03-28T23:50:39.109Z,6.13
2019-03-28T23:53:07.353Z,6.17
2019-03-28T23:55:36.374Z,5.20
2019-03-28T23:58:04.653Z,4.90
